Time;durP1;ratioP1;P1;durP2;ratioP2;P2;SDS_P1;SDS_P2;PMS_P1;PMS_P2;Temp;Humidity;BMP_temperature;BMP_pressure;BME280_temperature;BME280_humidity;BME280_pressure;Samples;Min_cycle;Max_cycle;Signal;HPM_P1;HPM_P2
2024/03/16 00:01:51;;;;;;;33.78;22.25;;;3.60;98.00;;;;;;4953638;28;20027;-78
2024/03/16 00:04:17;;;;;;;38.33;21.45;;;3.50;98.00;;;;;;4953761;28;20024;-79
2024/03/16 00:06:42;;;;;;;32.70;21.02;;;3.50;98.00;;;;;;4953617;29;20054;-79
2024/03/16 00:09:08;;;;;;;37.72;20.70;;;3.50;98.10;;;;;;4953245;28;20499;-81
2024/03/16 00:11:34;;;;;;;33.38;21.20;;;3.50;98.20;;;;;;4953391;28;20338;-81
2024/03/16 00:14:03;;;;;;;30.95;19.48;;;3.50;98.20;;;;;;4953557;28;20043;-79
2024/03/16 00:16:30;;;;;;;34.58;20.85;;;3.50;98.20;;;;;;4953442;28;20039;-81
2024/03/16 00:18:56;;;;;;;;;;;3.50;98.30;;;;;;4954132;28;20099;-82
2024/03/16 00:21:22;;;;;;;34.95;19.02;;;3.50;98.10;;;;;;4953262;28;19965;-80
2024/03/16 00:23:48;;;;;;;39.53;22.08;;;3.40;98.20;;;;;;4957869;28;20058;-82
2024/03/16 00:26:13;;;;;;;34.92;21.15;;;3.40;98.30;;;;;;4957383;28;20027;-81
2024/03/16 00:28:39;;;;;;;36.38;22.20;;;3.40;98.40;;;;;;4957383;29;20031;-81
2024/03/16 00:31:05;;;;;;;34.00;21.38;;;3.40;98.50;;;;;;4957297;28;20473;-82
2024/03/16 00:33:31;;;;;;;31.67;22.10;;;3.40;98.60;;;;;;4956019;29;20106;-83
2024/03/16 00:35:57;;;;;;;35.80;21.88;;;3.40;98.60;;;;;;4957400;28;20404;-81
2024/03/16 00:38:26;;;;;;;35.30;21.55;;;3.40;98.70;;;;;;4957231;28;20027;-82
2024/03/16 00:40:53;;;;;;;49.42;24.50;;;3.40;98.70;;;;;;4957015;28;20031;-80
2024/03/16 00:43:18;;;;;;;42.33;23.65;;;3.40;98.70;;;;;;4957826;29;20027;-82
2024/03/16 00:45:45;;;;;;;33.58;21.58;;;3.40;98.80;;;;;;4957293;29;20473;-82
2024/03/16 00:48:12;;;;;;;38.45;21.35;;;3.40;98.80;;;;;;4955780;29;20473;-81
2024/03/16 00:50:39;;;;;;;32.55;19.65;;;3.40;98.80;;;;;;4957121;28;20381;-82
2024/03/16 00:53:05;;;;;;;32.10;18.65;;;3.40;98.80;;;;;;4956967;28;20026;-84
2024/03/16 00:55:33;;;;;;;29.20;19.60;;;3.40;98.80;;;;;;4957006;29;20438;-82
2024/03/16 00:57:59;;;;;;;32.97;22.50;;;3.40;98.90;;;;;;4957103;28;20392;-82
2024/03/16 01:00:25;;;;;;;40.45;20.45;;;3.40;98.90;;;;;;4949365;28;20035;-83
2024/03/16 01:02:50;;;;;;;33.20;19.35;;;3.40;99.00;;;;;;4947336;29;20019;-83
2024/03/16 01:05:16;;;;;;;38.58;22.48;;;3.30;99.00;;;;;;4955550;29;20034;-83
2024/03/16 01:07:42;;;;;;;38.25;21.85;;;3.30;99.10;;;;;;4943296;28;20050;-83
2024/03/16 01:10:11;;;;;;;37.03;21.80;;;3.30;99.10;;;;;;4954114;28;20507;-83
2024/03/16 01:12:37;;;;;;;32.50;20.35;;;3.30;99.20;;;;;;4946664;29;20028;-83
2024/03/16 01:15:03;;;;;;;35.25;21.02;;;3.30;99.30;;;;;;4943661;29;20032;-83
2024/03/16 01:17:29;;;;;;;35.22;22.50;;;3.30;99.30;;;;;;4957567;28;20035;-82
2024/03/16 01:19:55;;;;;;;39.50;21.95;;;3.20;99.40;;;;;;4950041;28;20044;-83
2024/03/16 01:22:21;;;;;;;35.95;25.40;;;3.20;99.40;;;;;;4961680;28;20432;-84
2024/03/16 01:24:49;;;;;;;32.95;20.95;;;3.20;99.50;;;;;;4956724;28;20031;-83
2024/03/16 01:27:15;;;;;;;;;;;3.20;99.50;;;;;;4957045;29;20023;-85
2024/03/16 01:29:41;;;;;;;33.53;21.40;;;3.20;99.30;;;;;;4948104;29;19913;-83
2024/03/16 01:32:08;;;;;;;35.33;19.45;;;3.20;99.60;;;;;;4952515;28;20747;-83
2024/03/16 01:34:35;;;;;;;38.80;23.98;;;3.10;99.60;;;;;;4957458;28;20496;-85
2024/03/16 01:37:01;;;;;;;41.20;23.80;;;3.20;99.70;;;;;;4944634;28;20111;-84
2024/03/16 01:39:27;;;;;;;43.80;21.80;;;3.10;99.70;;;;;;4956100;29;20095;-84
2024/03/16 01:41:52;;;;;;;31.50;20.40;;;3.20;99.80;;;;;;4956888;28;20031;-83
2024/03/16 01:44:19;;;;;;;35.05;21.63;;;3.20;99.70;;;;;;4956506;28;20027;-85
2024/03/16 01:46:46;;;;;;;34.40;20.08;;;3.20;99.70;;;;;;4956335;28;20066;-84
2024/03/16 01:49:12;;;;;;;31.92;20.92;;;3.20;99.60;;;;;;4955263;29;20074;-85
2024/03/16 01:51:39;;;;;;;42.50;22.88;;;3.30;99.60;;;;;;4956495;28;20106;-86
2024/03/16 01:54:08;;;;;;;32.97;19.30;;;3.30;99.50;;;;;;4956243;29;20027;-85
2024/03/16 01:56:34;;;;;;;35.28;21.45;;;3.30;99.40;;;;;;4957856;29;20043;-85
2024/03/16 01:59:00;;;;;;;34.30;20.40;;;3.20;99.30;;;;;;4956169;29;20019;-85
2024/03/16 02:01:26;;;;;;;34.83;20.58;;;3.30;99.30;;;;;;4955324;29;20392;-85
2024/03/16 02:03:54;;;;;;;36.58;19.65;;;3.20;99.20;;;;;;4962810;28;20079;-84
2024/03/16 02:06:20;;;;;;;40.03;19.52;;;3.20;99.30;;;;;;4964108;29;20035;-84
2024/03/16 02:08:45;;;;;;;42.45;22.08;;;3.20;99.30;;;;;;4957809;28;20385;-85
2024/03/16 02:11:11;;;;;;;28.92;19.45;;;3.20;99.20;;;;;;4944147;28;20079;-86
2024/03/16 02:13:37;;;;;;;37.75;21.02;;;3.20;99.20;;;;;;4956770;29;20023;-85
2024/03/16 02:16:03;;;;;;;32.70;19.65;;;3.20;99.30;;;;;;4957261;29;20095;-85
2024/03/16 02:18:29;;;;;;;42.08;22.25;;;3.10;99.30;;;;;;4957455;28;20032;-84
2024/03/16 02:20:56;;;;;;;38.60;21.27;;;3.10;99.20;;;;;;4953032;29;20077;-85
2024/03/16 02:23:22;;;;;;;42.40;22.17;;;3.10;99.10;;;;;;4961026;28;20032;-84
2024/03/16 02:25:48;;;;;;;31.40;20.08;;;3.10;99.10;;;;;;4960137;28;20039;-84
2024/03/16 02:28:13;;;;;;;30.27;17.92;;;3.10;99.10;;;;;;4956162;29;20342;-86
2024/03/16 02:30:39;;;;;;;37.45;18.30;;;3.00;99.40;;;;;;4956253;29;20026;-86
2024/03/16 02:33:07;;;;;;;29.70;20.05;;;2.90;99.10;;;;;;4954262;28;20031;-84
2024/03/16 02:35:32;;;;;;;;;;;3.00;99.20;;;;;;4959058;28;20019;-85
2024/03/16 02:37:58;;;;;;;29.58;15.95;;;2.90;99.00;;;;;;4948776;29;19961;-86
2024/03/16 02:40:25;;;;;;;30.30;20.13;;;2.90;99.10;;;;;;4952267;28;20038;-84
2024/03/16 02:42:51;;;;;;;33.72;19.42;;;2.80;99.20;;;;;;4956060;29;20020;-85
2024/03/16 02:45:16;;;;;;;32.78;20.48;;;2.80;99.20;;;;;;4955077;28;20515;-86
2024/03/16 02:47:43;;;;;;;33.30;19.60;;;2.80;99.30;;;;;;4954429;29;20035;-84
2024/03/16 02:50:10;;;;;;;35.05;20.27;;;2.80;99.30;;;;;;4956793;28;20073;-85
2024/03/16 02:52:37;;;;;;;32.50;20.55;;;2.80;99.30;;;;;;4957352;28;20124;-83
2024/03/16 02:55:03;;;;;;;34.55;22.38;;;2.80;99.30;;;;;;4956130;28;20223;-85
2024/03/16 02:57:28;;;;;;;43.15;22.35;;;2.80;99.30;;;;;;4954952;29;20119;-83
2024/03/16 02:59:54;;;;;;;37.30;21.33;;;2.80;99.40;;;;;;4955045;28;20034;-84
2024/03/16 03:02:23;;;;;;;38.58;20.55;;;2.80;99.40;;;;;;4951503;28;20552;-84
2024/03/16 03:04:50;;;;;;;28.92;19.73;;;2.80;99.40;;;;;;4955120;28;20354;-83
2024/03/16 03:07:17;;;;;;;28.40;20.17;;;2.70;99.50;;;;;;4954733;28;20136;-83
2024/03/16 03:09:43;;;;;;;36.42;21.50;;;2.70;99.50;;;;;;4953020;28;20821;-83
2024/03/16 03:12:09;;;;;;;32.30;19.42;;;2.70;99.50;;;;;;4942486;29;20028;-84
2024/03/16 03:14:35;;;;;;;30.15;20.00;;;2.70;99.60;;;;;;4942346;28;20027;-85
2024/03/16 03:17:01;;;;;;;46.13;23.50;;;2.80;99.60;;;;;;4954009;29;20130;-82
2024/03/16 03:19:27;;;;;;;30.67;19.80;;;2.80;99.60;;;;;;4951001;28;20119;-84
2024/03/16 03:21:53;;;;;;;33.55;21.55;;;2.80;99.60;;;;;;4954406;28;20463;-82
2024/03/16 03:24:19;;;;;;;32.58;20.13;;;2.80;99.60;;;;;;4955222;28;20066;-81
2024/03/16 03:26:44;;;;;;;36.20;20.75;;;2.80;99.50;;;;;;4955244;28;20023;-83
2024/03/16 03:29:10;;;;;;;36.25;18.60;;;2.80;99.50;;;;;;4954965;29;20443;-83
2024/03/16 03:31:36;;;;;;;38.80;22.23;;;2.90;99.50;;;;;;4954505;29;20464;-84
2024/03/16 03:34:02;;;;;;;31.15;18.38;;;3.00;99.40;;;;;;4951908;28;20039;-83
2024/03/16 03:36:28;;;;;;;36.85;21.88;;;3.00;99.50;;;;;;4947904;28;20515;-83
2024/03/16 03:38:54;;;;;;;34.58;20.95;;;3.10;99.40;;;;;;4953012;28;20081;-83
2024/03/16 03:41:20;;;;;;;38.03;19.65;;;3.20;99.30;;;;;;4954109;28;20102;-83
2024/03/16 03:43:57;;;;;;;34.75;21.50;;;3.30;99.10;;;;;;4954564;29;20495;-82
2024/03/16 03:46:39;;;;;;;33.60;19.83;;;3.40;99.10;;;;;;4954252;28;20031;-83
2024/03/16 03:49:12;;;;;;;31.05;19.10;;;3.50;98.90;;;;;;4951190;28;20118;-83
2024/03/16 03:51:38;;;;;;;34.20;19.20;;;3.60;98.50;;;;;;4951464;29;20074;-84
2024/03/16 03:54:06;;;;;;;28.83;19.00;;;3.60;98.40;;;;;;4955466;28;20374;-81
2024/03/16 03:56:33;;;;;;;37.03;19.30;;;3.60;98.30;;;;;;4952938;28;20772;-81
2024/03/16 03:58:59;;;;;;;32.13;19.05;;;3.70;98.10;;;;;;4953881;28;20392;-82
2024/03/16 04:01:25;;;;;;;32.85;19.92;;;3.80;97.90;;;;;;4953981;28;20036;-81
2024/03/16 04:03:51;;;;;;;32.33;19.20;;;3.90;97.80;;;;;;4942055;28;20028;-80
2024/03/16 04:06:17;;;;;;;33.40;19.73;;;3.90;97.70;;;;;;4940623;29;20054;-83
2024/03/16 04:08:43;;;;;;;28.88;18.83;;;4.00;97.60;;;;;;4960175;28;20032;-83
2024/03/16 04:11:09;;;;;;;28.60;18.95;;;4.00;97.40;;;;;;4937733;28;20032;-83
2024/03/16 04:13:34;;;;;;;32.88;20.35;;;4.10;97.30;;;;;;4954246;29;20038;-81
2024/03/16 04:16:00;;;;;;;40.00;21.55;;;4.10;97.20;;;;;;4954054;29;20082;-82
2024/03/16 04:18:26;;;;;;;36.70;20.58;;;4.10;97.30;;;;;;4953404;29;20023;-81
2024/03/16 04:20:52;;;;;;;32.88;21.25;;;4.20;97.20;;;;;;4952629;29;20066;-82
2024/03/16 04:23:17;;;;;;;29.90;21.98;;;4.20;97.10;;;;;;4953831;28;20038;-81
2024/03/16 04:25:43;;;;;;;29.27;19.80;;;4.30;97.00;;;;;;4953804;29;20024;-83
2024/03/16 04:28:09;;;;;;;30.77;19.48;;;4.40;96.90;;;;;;4954030;29;20154;-82
2024/03/16 04:30:35;;;;;;;31.23;18.85;;;4.40;96.90;;;;;;4954481;28;20015;-82
2024/03/16 04:33:01;;;;;;;35.53;19.35;;;4.40;96.80;;;;;;4955151;28;20369;-81
2024/03/16 04:35:27;;;;;;;31.40;18.00;;;4.50;96.60;;;;;;4953708;28;20034;-82
2024/03/16 04:37:52;;;;;;;32.13;19.55;;;4.40;96.50;;;;;;4953751;28;20035;-83
2024/03/16 04:40:18;;;;;;;32.03;17.17;;;4.40;96.40;;;;;;4953320;28;20028;-83
2024/03/16 04:42:44;;;;;;;33.55;18.38;;;4.50;96.40;;;;;;4952165;29;20067;-84
2024/03/16 04:45:10;;;;;;;32.22;16.73;;;4.40;96.30;;;;;;4953338;29;20494;-82
2024/03/16 04:47:38;;;;;;;33.83;19.25;;;4.30;96.30;;;;;;4953253;28;20024;-83
2024/03/16 04:50:05;;;;;;;36.50;20.88;;;4.30;96.40;;;;;;4953569;29;20027;-83
2024/03/16 04:52:31;;;;;;;27.30;20.02;;;4.30;96.40;;;;;;4953399;28;20038;-83
2024/03/16 04:54:57;;;;;;;37.45;20.13;;;4.40;96.20;;;;;;4951478;29;20035;-84
2024/03/16 04:57:23;;;;;;;37.00;20.90;;;4.50;96.30;;;;;;4946581;29;20054;-83
2024/03/16 04:59:49;;;;;;;36.65;20.52;;;4.60;96.20;;;;;;4953461;29;20067;-82
2024/03/16 05:02:14;;;;;;;34.03;20.45;;;4.60;96.00;;;;;;4948764;28;20370;-83
2024/03/16 05:04:40;;;;;;;34.25;21.13;;;4.70;95.90;;;;;;4954296;28;20020;-82
2024/03/16 05:07:06;;;;;;;36.50;20.45;;;4.80;95.70;;;;;;4955082;28;20027;-83
2024/03/16 05:09:32;;;;;;;34.65;21.80;;;4.80;95.60;;;;;;4957149;28;20022;-83
2024/03/16 05:11:57;;;;;;;40.75;21.95;;;4.90;95.60;;;;;;4943496;28;20027;-82
2024/03/16 05:14:23;;;;;;;41.60;23.65;;;5.00;95.50;;;;;;4957261;29;20031;-84
2024/03/16 05:16:49;;;;;;;30.98;21.50;;;5.00;95.30;;;;;;4955860;29;20082;-84
2024/03/16 05:19:14;;;;;;;37.33;22.58;;;5.00;95.20;;;;;;4955745;29;20041;-84
2024/03/16 05:21:41;;;;;;;36.35;21.23;;;5.10;95.20;;;;;;4955386;29;20126;-83
2024/03/16 05:24:07;;;;;;;38.05;19.55;;;5.20;95.00;;;;;;4956737;28;20070;-84
2024/03/16 05:26:34;;;;;;;42.17;23.85;;;5.20;95.00;;;;;;4958141;28;20035;-83
2024/03/16 05:28:59;;;;;;;35.13;22.83;;;5.20;95.00;;;;;;4943324;29;20484;-83
2024/03/16 05:31:28;;;;;;;41.25;22.50;;;5.20;95.00;;;;;;4956740;29;20039;-84
2024/03/16 05:33:54;;;;;;;42.22;21.77;;;5.20;94.90;;;;;;4956379;28;20050;-83
2024/03/16 05:36:20;;;;;;;43.60;23.83;;;5.20;94.90;;;;;;4956366;28;20032;-83
2024/03/16 05:38:46;;;;;;;41.75;21.17;;;5.20;94.90;;;;;;4956516;28;20078;-82
2024/03/16 05:41:12;;;;;;;46.45;22.58;;;5.30;94.90;;;;;;4956315;28;20421;-82
2024/03/16 05:43:38;;;;;;;36.97;22.40;;;5.30;94.70;;;;;;4956098;28;20031;-84
2024/03/16 05:46:04;;;;;;;39.33;21.55;;;5.30;94.70;;;;;;4956514;29;20389;-83
2024/03/16 05:48:30;;;;;;;36.70;19.35;;;5.30;94.60;;;;;;4957374;28;20110;-81
2024/03/16 05:50:56;;;;;;;34.67;20.58;;;5.40;94.50;;;;;;4959853;29;20535;-84
2024/03/16 05:53:23;;;;;;;45.05;24.35;;;5.40;94.40;;;;;;4950874;28;20089;-83
2024/03/16 05:55:50;;;;;;;45.10;22.15;;;5.50;94.40;;;;;;4955636;28;20019;-84
2024/03/16 05:58:16;;;;;;;38.35;22.13;;;5.50;94.20;;;;;;4955894;29;20485;-84
2024/03/16 06:00:42;;;;;;;41.38;21.88;;;5.50;94.00;;;;;;4955568;29;20032;-82
2024/03/16 06:03:08;;;;;;;45.08;23.25;;;5.50;94.10;;;;;;4953609;29;20019;-84
2024/03/16 06:05:37;;;;;;;40.30;23.38;;;5.50;94.10;;;;;;4954181;29;20034;-83
2024/03/16 06:08:05;;;;;;;47.30;21.83;;;5.50;94.10;;;;;;4956584;29;20046;-83
2024/03/16 06:10:32;;;;;;;43.53;23.90;;;5.50;94.00;;;;;;4948758;29;20016;-84
2024/03/16 06:12:58;;;;;;;42.00;22.40;;;5.50;94.00;;;;;;4950452;29;20039;-83
2024/03/16 06:15:24;;;;;;;36.35;21.27;;;5.50;93.90;;;;;;4956341;28;20098;-83
2024/03/16 06:17:50;;;;;;;50.10;24.85;;;5.60;93.90;;;;;;4955729;29;20123;-82
2024/03/16 06:20:16;;;;;;;45.50;24.73;;;5.60;93.90;;;;;;4951039;28;20121;-83
2024/03/16 06:22:44;;;;;;;42.30;24.03;;;5.70;93.90;;;;;;4947109;29;20041;-85
2024/03/16 06:25:12;;;;;;;40.35;24.58;;;5.70;93.80;;;;;;4955381;28;20067;-83
2024/03/16 06:27:49;;;;;;;40.40;22.95;;;5.70;93.80;;;;;;4955394;28;20028;-84
2024/03/16 06:30:19;;;;;;;42.60;23.40;;;5.80;93.70;;;;;;4957197;28;20059;-85
2024/03/16 06:35:29;;;;;;;36.50;23.38;;;5.90;93.50;;;;;;4952037;29;20114;-82
2024/03/16 06:38:15;;;;;;;39.30;24.40;;;6.00;93.40;;;;;;4940601;29;20114;-82
2024/03/16 06:40:41;;;;;;;45.08;24.48;;;6.00;93.40;;;;;;4949061;28;20505;-83
2024/03/16 06:43:06;;;;;;;40.53;21.52;;;6.00;93.30;;;;;;4951080;29;20027;-86
2024/03/16 06:45:32;;;;;;;37.95;22.20;;;6.00;93.10;;;;;;4953806;29;20024;-85
2024/03/16 06:47:58;;;;;;;41.38;23.33;;;5.90;93.00;;;;;;4955782;28;20046;-86
2024/03/16 06:50:24;;;;;;;37.08;21.90;;;5.90;93.10;;;;;;4955531;28;20031;-84
2024/03/16 06:52:49;;;;;;;47.78;23.10;;;5.90;93.10;;;;;;4954504;28;20029;-86
2024/03/16 06:55:17;;;;;;;39.00;21.40;;;5.90;92.90;;;;;;4955230;29;20081;-83
2024/03/16 06:57:43;;;;;;;;;;;5.80;93.00;;;;;;4955421;28;20496;-84
2024/03/16 07:00:09;;;;;;;38.92;21.48;;;5.70;93.00;;;;;;4953751;29;19913;-85
2024/03/16 07:02:35;;;;;;;45.28;22.20;;;5.80;93.00;;;;;;4954927;29;20070;-84
2024/03/16 07:05:01;;;;;;;32.10;16.70;;;5.90;93.00;;;;;;4953741;29;20054;-84
2024/03/16 07:07:28;;;;;;;36.03;21.00;;;5.80;92.60;;;;;;4955232;28;20031;-84
2024/03/16 07:09:54;;;;;;;29.63;18.55;;;5.70;92.80;;;;;;4951998;28;20057;-84
2024/03/16 07:12:21;;;;;;;34.10;21.20;;;5.60;93.10;;;;;;4944869;29;20046;-85
2024/03/16 07:14:47;;;;;;;41.97;22.77;;;5.60;93.10;;;;;;4954928;28;20662;-83
2024/03/16 07:17:13;;;;;;;34.75;18.27;;;5.90;93.00;;;;;;4955577;29;20572;-84
2024/03/16 07:19:38;;;;;;;30.85;16.85;;;6.00;92.70;;;;;;4954854;28;20123;-85
2024/03/16 07:22:04;;;;;;;31.80;18.20;;;5.80;92.50;;;;;;4953629;28;20400;-86
2024/03/16 07:24:30;;;;;;;35.65;19.73;;;5.60;92.50;;;;;;4954995;28;20075;-86
2024/03/16 07:26:56;;;;;;;35.17;18.95;;;5.50;92.70;;;;;;4954999;28;20027;-83
2024/03/16 07:29:21;;;;;;;32.15;17.13;;;5.50;93.00;;;;;;4952981;28;20020;-86
2024/03/16 07:31:49;;;;;;;36.88;19.13;;;5.60;93.00;;;;;;4957992;28;20079;-87
2024/03/16 07:34:15;;;;;;;30.42;18.55;;;5.70;92.90;;;;;;4952580;29;20027;-84
2024/03/16 07:36:41;;;;;;;30.70;20.33;;;5.70;92.80;;;;;;4954890;28;20511;-86
2024/03/16 07:39:08;;;;;;;27.67;18.63;;;5.80;92.70;;;;;;4958503;29;20117;-86
2024/03/16 07:41:37;;;;;;;28.73;16.33;;;6.10;92.70;;;;;;4945636;29;20424;-85
2024/03/16 07:44:03;;;;;;;30.77;18.50;;;6.20;92.00;;;;;;4953831;29;20031;-87
2024/03/16 07:46:29;;;;;;;27.85;14.98;;;6.10;92.00;;;;;;4947362;29;20115;-88
2024/03/16 07:48:59;;;;;;;35.65;18.92;;;6.30;92.20;;;;;;4952317;29;20026;-86
2024/03/16 07:51:31;;;;;;;31.30;17.05;;;6.30;91.90;;;;;;4955286;29;20031;-86
2024/03/16 07:53:58;;;;;;;27.63;16.13;;;6.60;91.90;;;;;;4954565;28;20023;-88
2024/03/16 07:56:24;;;;;;;35.33;17.48;;;7.00;91.30;;;;;;4954207;28;20059;-87
2024/03/16 07:58:50;;;;;;;28.27;15.73;;;7.10;91.00;;;;;;4955147;28;20031;-86
2024/03/16 08:01:16;;;;;;;27.50;20.17;;;7.50;90.80;;;;;;4954834;29;20051;-84
2024/03/16 08:03:42;;;;;;;39.50;20.25;;;8.20;90.20;;;;;;4955928;28;20102;-84
2024/03/16 08:06:08;;;;;;;24.63;17.23;;;8.80;88.40;;;;;;4944850;28;20083;-82
2024/03/16 08:08:34;;;;;;;30.88;21.08;;;9.60;86.80;;;;;;4954813;28;20085;-83
2024/03/16 08:11:00;;;;;;;28.50;18.73;;;10.30;84.00;;;;;;4942466;29;20020;-84
2024/03/16 08:13:26;;;;;;;26.55;17.10;;;10.90;80.90;;;;;;4951448;29;20090;-83
2024/03/16 08:15:52;;;;;;;33.42;19.77;;;11.20;78.90;;;;;;4953551;28;20106;-84
2024/03/16 08:18:18;;;;;;;30.60;18.85;;;11.70;78.50;;;;;;4953427;29;20131;-84
2024/03/16 08:20:44;;;;;;;28.35;18.90;;;12.40;75.40;;;;;;4951329;28;20082;-84
2024/03/16 08:23:10;;;;;;;31.15;19.63;;;13.20;72.50;;;;;;4944550;28;20032;-85
2024/03/16 08:25:35;;;;;;;30.67;20.30;;;13.10;70.20;;;;;;4953837;28;20034;-84
2024/03/16 08:28:01;;;;;;;30.27;21.10;;;12.80;70.40;;;;;;4952114;29;20502;-86
2024/03/16 08:30:27;;;;;;;24.30;18.33;;;13.30;71.00;;;;;;4953828;28;20547;-85
2024/03/16 08:32:53;;;;;;;28.10;20.60;;;13.80;69.50;;;;;;4952505;29;20067;-84
2024/03/16 08:35:19;;;;;;;31.75;19.80;;;14.80;67.00;;;;;;4954531;28;20038;-86
2024/03/16 08:37:45;;;;;;;32.05;19.17;;;15.80;64.00;;;;;;4950085;29;20027;-83
2024/03/16 08:40:15;;;;;;;25.85;19.42;;;16.50;62.00;;;;;;4942276;29;20472;-84
2024/03/16 08:42:41;;;;;;;27.63;19.92;;;17.30;60.10;;;;;;4949061;28;20019;-87
2024/03/16 08:45:10;;;;;;;22.58;15.35;;;17.40;57.50;;;;;;4952833;28;20631;-87
2024/03/16 08:47:37;;;;;;;26.55;16.50;;;17.10;56.50;;;;;;4952570;28;20034;-89
2024/03/16 08:50:04;;;;;;;23.15;16.30;;;16.10;57.70;;;;;;4947463;28;20036;-85
2024/03/16 08:52:30;;;;;;;24.98;18.05;;;15.60;58.00;;;;;;4947891;29;20050;-85
2024/03/16 08:54:56;;;;;;;20.98;14.63;;;14.20;60.10;;;;;;4956243;29;20093;-84
2024/03/16 08:57:23;;;;;;;27.83;16.38;;;13.40;62.30;;;;;;4956438;28;20039;-84
2024/03/16 08:59:48;;;;;;;24.92;16.80;;;12.80;64.00;;;;;;4955597;28;20031;-82
2024/03/16 09:02:14;;;;;;;28.70;15.57;;;12.60;65.00;;;;;;4956010;29;20024;-84
2024/03/16 09:04:40;;;;;;;28.45;15.98;;;12.20;65.40;;;;;;4955923;29;20030;-84
2024/03/16 09:07:06;;;;;;;24.60;16.00;;;12.00;66.00;;;;;;4958288;28;20373;-85
2024/03/16 09:09:32;;;;;;;31.80;16.25;;;11.80;66.70;;;;;;4958341;28;20528;-85
2024/03/16 09:11:58;;;;;;;28.13;16.75;;;11.90;67.60;;;;;;4959239;29;20027;-86
2024/03/16 09:14:24;;;;;;;28.52;17.83;;;12.80;66.90;;;;;;4959654;28;20097;-86
2024/03/16 09:16:50;;;;;;;27.20;18.27;;;13.60;64.10;;;;;;4957449;28;20051;-86
2024/03/16 09:19:15;;;;;;;23.02;15.70;;;14.30;62.50;;;;;;4956719;29;20385;-84
2024/03/16 09:21:42;;;;;;;26.83;14.23;;;14.50;60.90;;;;;;4951863;29;20082;-86
2024/03/16 09:24:07;;;;;;;29.80;15.63;;;14.00;60.60;;;;;;4945376;29;20038;-84
2024/03/16 09:26:34;;;;;;;30.45;17.25;;;13.50;62.70;;;;;;4953829;28;20110;-85
2024/03/16 09:29:00;;;;;;;23.80;17.58;;;14.00;62.30;;;;;;4956732;28;20012;-85
2024/03/16 09:31:26;;;;;;;20.33;14.70;;;14.70;61.10;;;;;;4955555;29;20090;-82
2024/03/16 09:33:52;;;;;;;21.10;15.05;;;15.20;59.60;;;;;;4956098;29;20064;-85
2024/03/16 09:36:18;;;;;;;20.33;13.23;;;15.30;59.00;;;;;;4951488;29;20044;-87
2024/03/16 09:38:43;;;;;;;20.23;12.48;;;15.10;58.60;;;;;;4952455;29;20020;-82
2024/03/16 09:41:18;;;;;;;16.38;11.55;;;15.70;59.00;;;;;;4958222;28;20027;-85
2024/03/16 09:43:45;;;;;;;19.92;11.88;;;15.40;57.70;;;;;;4958358;28;20051;-90
2024/03/16 09:46:11;;;;;;;23.10;13.03;;;15.00;60.00;;;;;;4956484;28;20405;-80
2024/03/16 09:48:38;;;;;;;22.83;13.65;;;16.10;58.00;;;;;;4949053;28;20027;-85
2024/03/16 09:51:04;;;;;;;18.23;11.30;;;17.30;56.10;;;;;;4955740;29;20392;-82
2024/03/16 09:53:32;;;;;;;24.15;13.40;;;18.20;53.20;;;;;;4955977;28;20035;-84
2024/03/16 09:56:07;;;;;;;19.17;13.95;;;17.90;52.90;;;;;;4957040;29;20023;-91
2024/03/16 09:58:37;;;;;;;27.17;13.57;;;18.00;52.50;;;;;;4960541;29;20035;-88
2024/03/16 10:01:04;;;;;;;20.77;12.52;;;17.30;52.50;;;;;;4957610;29;20055;-90
2024/03/16 10:03:34;;;;;;;17.52;10.68;;;16.90;53.80;;;;;;4958941;29;20125;-88
2024/03/16 10:06:08;;;;;;;18.38;10.98;;;16.90;53.90;;;;;;4958275;28;20059;-78
2024/03/16 10:08:38;;;;;;;18.98;10.35;;;17.60;53.10;;;;;;4955546;28;20058;-80
2024/03/16 10:11:12;;;;;;;15.10;10.55;;;18.10;51.40;;;;;;4943167;28;20055;-81
2024/03/16 10:13:53;;;;;;;18.92;10.65;;;17.60;52.00;;;;;;4948412;29;20040;-85
2024/03/16 10:16:20;;;;;;;24.88;12.98;;;17.90;52.30;;;;;;4950449;28;20036;-82
2024/03/16 10:18:46;;;;;;;26.02;14.73;;;16.90;52.10;;;;;;4949701;28;20051;-82
2024/03/16 10:21:12;;;;;;;29.23;14.90;;;16.10;53.40;;;;;;4947482;29;20058;-82
2024/03/16 10:23:38;;;;;;;26.13;12.88;;;15.60;54.50;;;;;;4955359;28;20031;-82
2024/03/16 10:26:09;;;;;;;22.17;14.98;;;15.30;55.00;;;;;;4955224;28;20027;-85
2024/03/16 10:28:37;;;;;;;20.77;14.25;;;15.00;55.60;;;;;;4957171;28;20027;-83
2024/03/16 10:31:03;;;;;;;19.67;14.75;;;14.60;56.30;;;;;;4951589;29;20030;-82
2024/03/16 10:33:36;;;;;;;18.15;13.35;;;14.20;57.20;;;;;;4950908;29;20031;-84
2024/03/16 10:36:02;;;;;;;23.83;13.88;;;13.70;58.00;;;;;;4955547;28;20019;-84
2024/03/16 10:38:30;;;;;;;23.63;15.15;;;13.10;59.50;;;;;;4955097;29;20039;-82
2024/03/16 10:41:05;;;;;;;22.08;13.05;;;12.90;60.40;;;;;;4954313;29;20429;-82
2024/03/16 10:43:33;;;;;;;22.88;15.45;;;12.90;60.70;;;;;;4958818;28;20342;-83
2024/03/16 10:46:05;;;;;;;28.02;15.82;;;12.50;61.60;;;;;;4956211;28;20019;-85
2024/03/16 10:48:32;;;;;;;25.95;14.07;;;12.70;61.70;;;;;;4957545;28;20469;-84
2024/03/16 10:51:01;;;;;;;18.50;13.02;;;12.60;61.20;;;;;;4957035;28;20481;-84
2024/03/16 10:53:27;;;;;;;29.00;14.00;;;12.50;62.10;;;;;;4956464;28;20028;-84
2024/03/16 10:55:53;;;;;;;22.67;12.93;;;12.70;62.30;;;;;;4956392;28;20070;-84
2024/03/16 10:58:25;;;;;;;19.48;12.80;;;12.20;62.70;;;;;;4957031;29;20397;-83
2024/03/16 11:01:00;;;;;;;27.50;13.45;;;11.90;63.10;;;;;;4954584;29;20023;-84
2024/03/16 11:03:29;;;;;;;16.15;10.32;;;12.10;63.30;;;;;;4954931;28;20027;-85
2024/03/16 11:06:12;;;;;;;20.42;11.85;;;11.80;63.10;;;;;;4953736;28;20027;-84
2024/03/16 11:08:48;;;;;;;22.10;9.25;;;11.40;64.50;;;;;;4933056;29;20562;-85
2024/03/16 11:11:30;;;;;;;23.10;13.73;;;11.60;64.10;;;;;;4941261;28;20024;-83
2024/03/16 11:13:58;;;;;;;24.73;13.23;;;11.50;64.60;;;;;;4952121;29;20023;-84
2024/03/16 11:16:28;;;;;;;29.17;16.30;;;11.40;65.00;;;;;;4955555;29;20046;-83
2024/03/16 11:18:58;;;;;;;24.52;13.23;;;11.50;65.00;;;;;;4949504;28;20047;-83
2024/03/16 11:21:30;;;;;;;21.70;11.60;;;11.60;64.80;;;;;;4947468;29;20055;-83
2024/03/16 11:24:09;;;;;;;23.90;13.27;;;11.80;65.40;;;;;;4954924;29;20042;-82
2024/03/16 11:26:38;;;;;;;24.10;13.02;;;12.00;64.30;;;;;;4943023;29;20043;-83
2024/03/16 11:29:05;;;;;;;20.58;11.27;;;12.00;63.60;;;;;;4954303;28;20531;-83
2024/03/16 11:31:37;;;;;;;21.75;11.98;;;11.90;63.80;;;;;;4952977;29;20035;-83
2024/03/16 11:34:08;;;;;;;17.33;9.30;;;11.60;64.10;;;;;;4954317;28;20027;-82
2024/03/16 11:36:35;;;;;;;21.58;10.85;;;11.50;64.00;;;;;;4954498;29;20126;-84
2024/03/16 11:39:10;;;;;;;27.02;13.73;;;11.20;65.00;;;;;;4954399;28;20074;-83
2024/03/16 11:41:43;;;;;;;25.02;10.77;;;11.40;65.20;;;;;;4953891;28;20019;-83
2024/03/16 11:44:13;;;;;;;19.52;11.23;;;11.20;65.00;;;;;;4958921;28;20518;-83
2024/03/16 11:46:46;;;;;;;26.13;13.82;;;11.30;65.40;;;;;;4953460;28;20508;-83
2024/03/16 11:49:17;;;;;;;17.05;10.80;;;11.50;65.40;;;;;;4944871;28;20026;-83
2024/03/16 11:51:52;;;;;;;23.42;11.30;;;11.70;64.50;;;;;;4954713;28;20035;-85
2024/03/16 11:54:18;;;;;;;15.93;10.93;;;11.70;64.10;;;;;;4946821;29;20118;-86
2024/03/16 11:56:44;;;;;;;22.38;10.85;;;11.70;64.50;;;;;;4953662;29;20126;-82
2024/03/16 11:59:16;;;;;;;25.42;10.82;;;11.60;64.20;;;;;;4950240;28;20412;-83
2024/03/16 12:01:47;;;;;;;18.73;11.32;;;11.50;64.50;;;;;;4952832;29;20035;-84
2024/03/16 12:04:17;;;;;;;23.92;10.93;;;11.20;65.30;;;;;;4953176;28;20094;-84
2024/03/16 12:06:48;;;;;;;24.35;9.75;;;11.20;65.60;;;;;;4952865;28;20433;-86
2024/03/16 12:09:15;;;;;;;19.30;11.15;;;11.40;65.40;;;;;;4919013;29;20127;-84
2024/03/16 12:11:50;;;;;;;26.35;11.27;;;11.50;65.20;;;;;;4952127;29;20031;-84
2024/03/16 12:14:21;;;;;;;22.02;10.32;;;11.50;64.90;;;;;;4953351;28;20027;-83
2024/03/16 12:16:49;;;;;;;20.05;10.32;;;11.20;64.90;;;;;;4952247;28;20031;-85
2024/03/16 12:19:15;;;;;;;20.52;12.18;;;10.80;65.50;;;;;;4956190;28;20023;-82
2024/03/16 12:21:42;;;;;;;17.70;9.75;;;10.70;66.50;;;;;;4957496;28;20031;-83
2024/03/16 12:24:12;;;;;;;23.45;11.52;;;10.80;66.50;;;;;;4956349;29;20427;-84
2024/03/16 12:26:40;;;;;;;18.23;10.10;;;10.50;66.90;;;;;;4955904;29;20035;-82
2024/03/16 12:29:16;;;;;;;23.52;12.80;;;10.20;67.90;;;;;;4957590;28;20023;-80
2024/03/16 12:31:48;;;;;;;29.38;10.52;;;10.10;68.70;;;;;;4957994;28;20170;-84
2024/03/16 12:34:15;;;;;;;23.55;10.95;;;10.00;68.90;;;;;;4958093;29;20062;-83
2024/03/16 12:36:41;;;;;;;17.15;10.10;;;9.90;69.10;;;;;;4957516;29;20575;-85
2024/03/16 12:39:10;;;;;;;22.20;9.98;;;9.80;69.60;;;;;;4955613;29;20039;-84